GTI335 KATL-KIAH
Flight info
| Callsign | GTI335 |
|---|---|
| Flight time | 1h 35m |
| Altitude | 30000 |
| Route | KAJIN2 STNGA MHZ AEX SKNRD5 |
| Aircraft | B77L/H-SDE1E2E3FGHIJ2J3J4J5M1RWXY/LB1D1 |
Departure
| Time | 2026-05-04 10:04 |
|---|---|
| Airport | Hartsfield Jackson Atlanta International Airport (KATL) |
Arrival
| Time | 2026-05-04 11:39 |
|---|---|
| Airport | George Bush Intercontinental Airport (KIAH) |
| Time | Latitude | Longitude | Altitude | Speed | Heading |
|---|---|---|---|---|---|
| 2026-05-04 09:51 | 33.62810 | -84.42948 | 1011 ft | 0 kts | 270° |
| 2026-05-04 09:57 | 33.62810 | -84.42937 | 1011 ft | 3 kts | 270° |
| 2026-05-04 09:58 | 33.62810 | -84.42915 | 1011 ft | 3 kts | 270° |
| 2026-05-04 09:58 | 33.62808 | -84.42892 | 1011 ft | 3 kts | 302° |
| 2026-05-04 09:58 | 33.62795 | -84.42876 | 1011 ft | 3 kts | 345° |
| 2026-05-04 10:00 | 33.62972 | -84.42910 | 1011 ft | 14 kts | 338° |
| 2026-05-04 10:00 | 33.63062 | -84.42892 | 1011 ft | 14 kts | 62° |
| 2026-05-04 10:02 | 33.63075 | -84.42048 | 1010 ft | 14 kts | 90° |
| 2026-05-04 10:04 | 33.63375 | -84.45631 | 2112 ft | 192 kts | 290° |
| 2026-05-04 10:04 | 33.63869 | -84.47149 | 2975 ft | 205 kts | 294° |
| 2026-05-04 10:04 | 33.64452 | -84.48741 | 3687 ft | 212 kts | 296° |
| 2026-05-04 10:04 | 33.65047 | -84.50434 | 4097 ft | 233 kts | 293° |
| 2026-05-04 10:05 | 33.65663 | -84.52346 | 4565 ft | 253 kts | 289° |
| 2026-05-04 10:05 | 33.66185 | -84.54406 | 5383 ft | 261 kts | 286° |
| 2026-05-04 10:05 | 33.66638 | -84.56534 | 6288 ft | 265 kts | 284° |
| 2026-05-04 10:05 | 33.67064 | -84.58706 | 7194 ft | 268 kts | 283° |
| 2026-05-04 10:06 | 33.67454 | -84.60914 | 8066 ft | 272 kts | 282° |
| 2026-05-04 10:06 | 33.67834 | -84.63156 | 8911 ft | 276 kts | 282° |
| 2026-05-04 10:06 | 33.68215 | -84.65408 | 9739 ft | 281 kts | 281° |
| 2026-05-04 10:08 | 33.68264 | -84.81513 | 12052 ft | 384 kts | 246° |
| 2026-05-04 10:08 | 33.67202 | -84.84498 | 12917 ft | 389 kts | 249° |
| 2026-05-04 10:08 | 33.66217 | -84.87526 | 13986 ft | 389 kts | 250° |
| 2026-05-04 10:08 | 33.65266 | -84.90522 | 14919 ft | 389 kts | 251° |
| 2026-05-04 10:09 | 33.64297 | -84.93573 | 15839 ft | 391 kts | 251° |
| 2026-05-04 10:09 | 33.63321 | -84.96629 | 16737 ft | 393 kts | 251° |
| 2026-05-04 10:09 | 33.62339 | -84.99690 | 17597 ft | 395 kts | 251° |
| 2026-05-04 10:09 | 33.61343 | -85.02781 | 18464 ft | 397 kts | 251° |
| 2026-05-04 10:10 | 33.60341 | -85.05883 | 19184 ft | 400 kts | 251° |
| 2026-05-04 10:10 | 33.59330 | -85.09006 | 19893 ft | 403 kts | 251° |
| 2026-05-04 10:10 | 33.58308 | -85.12161 | 20569 ft | 407 kts | 251° |
| 2026-05-04 10:10 | 33.57287 | -85.15308 | 21225 ft | 410 kts | 251° |
| 2026-05-04 10:11 | 33.56247 | -85.18510 | 21917 ft | 413 kts | 251° |
| 2026-05-04 10:11 | 33.55200 | -85.21733 | 22612 ft | 416 kts | 251° |
| 2026-05-04 10:11 | 33.54278 | -85.25016 | 23223 ft | 416 kts | 257° |
| 2026-05-04 10:11 | 33.53599 | -85.28403 | 23811 ft | 420 kts | 260° |
| 2026-05-04 10:12 | 33.53015 | -85.31851 | 24357 ft | 422 kts | 261° |
| 2026-05-04 10:12 | 33.52451 | -85.35303 | 24966 ft | 423 kts | 261° |
| 2026-05-04 10:12 | 33.51872 | -85.38772 | 25540 ft | 425 kts | 261° |
| 2026-05-04 10:12 | 33.51270 | -85.42253 | 26072 ft | 428 kts | 261° |
| 2026-05-04 10:13 | 33.50653 | -85.45713 | 26584 ft | 431 kts | 260° |
| 2026-05-04 10:13 | 33.50011 | -85.49231 | 27128 ft | 434 kts | 260° |
| 2026-05-04 10:13 | 33.49357 | -85.52773 | 27648 ft | 436 kts | 260° |
| 2026-05-04 10:13 | 33.48693 | -85.56334 | 28156 ft | 439 kts | 260° |
| 2026-05-04 10:14 | 33.48023 | -85.59916 | 28635 ft | 442 kts | 260° |
| 2026-05-04 10:14 | 33.47348 | -85.63514 | 29093 ft | 444 kts | 260° |
| 2026-05-04 10:16 | 33.42592 | -85.88714 | 32565 ft | 439 kts | 260° |
| 2026-05-04 10:16 | 33.41917 | -85.92274 | 33012 ft | 438 kts | 260° |
| 2026-05-04 10:16 | 33.41243 | -85.95821 | 33489 ft | 436 kts | 260° |
| 2026-05-04 10:16 | 33.40570 | -85.99358 | 33934 ft | 435 kts | 260° |
| 2026-05-04 10:17 | 33.39896 | -86.02890 | 34335 ft | 434 kts | 260° |
| 2026-05-04 10:17 | 33.39224 | -86.06407 | 34702 ft | 432 kts | 261° |
| 2026-05-04 10:19 | 33.34549 | -86.30730 | 36132 ft | 426 kts | 261° |
| 2026-05-04 10:19 | 33.33880 | -86.34179 | 36133 ft | 424 kts | 261° |
| 2026-05-04 10:19 | 33.32548 | -86.41045 | 36136 ft | 423 kts | 261° |
| 2026-05-04 10:20 | 33.31218 | -86.47890 | 36129 ft | 422 kts | 261° |
| 2026-05-04 10:20 | 33.29895 | -86.54674 | 36122 ft | 422 kts | 261° |
| 2026-05-04 10:21 | 33.28557 | -86.61510 | 36124 ft | 422 kts | 261° |
| 2026-05-04 10:21 | 33.27213 | -86.68357 | 36123 ft | 423 kts | 261° |
| 2026-05-04 10:22 | 33.25188 | -86.78629 | 36128 ft | 423 kts | 261° |
| 2026-05-04 10:23 | 33.23829 | -86.85493 | 36124 ft | 424 kts | 261° |
| 2026-05-04 10:25 | 33.18367 | -87.12886 | 36102 ft | 424 kts | 261° |
| 2026-05-04 10:25 | 33.17002 | -87.19684 | 36069 ft | 423 kts | 261° |
| 2026-05-04 10:26 | 33.15625 | -87.26517 | 36063 ft | 423 kts | 261° |
| 2026-05-04 10:26 | 33.14247 | -87.33337 | 36051 ft | 422 kts | 261° |
| 2026-05-04 10:27 | 33.12866 | -87.40148 | 36049 ft | 421 kts | 261° |
| 2026-05-04 10:27 | 33.11482 | -87.46916 | 36066 ft | 420 kts | 260° |
| 2026-05-04 10:28 | 33.09873 | -87.53585 | 36071 ft | 420 kts | 258° |
| 2026-05-04 10:28 | 33.08170 | -87.60250 | 36076 ft | 419 kts | 258° |
| 2026-05-04 10:29 | 33.06490 | -87.66907 | 36071 ft | 419 kts | 259° |
| 2026-05-04 10:29 | 33.05110 | -87.72429 | 36073 ft | 418 kts | 259° |
| 2026-05-04 10:30 | 33.03455 | -87.79073 | 36074 ft | 417 kts | 259° |
| 2026-05-04 10:30 | 33.01802 | -87.85698 | 36086 ft | 417 kts | 259° |
| 2026-05-04 10:31 | 33.00149 | -87.92312 | 36089 ft | 416 kts | 259° |
| 2026-05-04 10:32 | 32.94342 | -88.15400 | 36083 ft | 416 kts | 259° |
| 2026-05-04 10:33 | 32.92677 | -88.21985 | 36103 ft | 415 kts | 259° |
| 2026-05-04 10:33 | 32.91007 | -88.28572 | 36101 ft | 415 kts | 259° |
| 2026-05-04 10:34 | 32.89335 | -88.35151 | 36105 ft | 415 kts | 259° |
| 2026-05-04 10:34 | 32.87659 | -88.41727 | 36080 ft | 414 kts | 259° |
| 2026-05-04 10:35 | 32.85993 | -88.48246 | 36071 ft | 413 kts | 259° |
| 2026-05-04 10:35 | 32.84323 | -88.54772 | 36095 ft | 412 kts | 259° |
| 2026-05-04 10:36 | 32.82651 | -88.61288 | 36111 ft | 412 kts | 259° |
| 2026-05-04 10:36 | 32.80974 | -88.67807 | 36115 ft | 411 kts | 259° |
| 2026-05-04 10:37 | 32.79308 | -88.74271 | 36118 ft | 411 kts | 259° |
| 2026-05-04 10:37 | 32.77628 | -88.80769 | 36126 ft | 411 kts | 259° |
| 2026-05-04 10:39 | 32.71726 | -89.03484 | 36067 ft | 411 kts | 259° |
| 2026-05-04 10:40 | 32.70032 | -89.09966 | 36091 ft | 410 kts | 259° |
| 2026-05-04 10:40 | 32.68339 | -89.16435 | 36084 ft | 411 kts | 259° |
| 2026-05-04 10:41 | 32.66651 | -89.22866 | 36067 ft | 411 kts | 259° |
| 2026-05-04 10:41 | 32.64948 | -89.29340 | 36048 ft | 410 kts | 259° |
| 2026-05-04 10:42 | 32.63245 | -89.35798 | 36030 ft | 410 kts | 259° |
| 2026-05-04 10:42 | 32.61535 | -89.42268 | 35987 ft | 410 kts | 259° |
| 2026-05-04 10:43 | 32.59826 | -89.48719 | 36013 ft | 409 kts | 259° |
| 2026-05-04 10:45 | 32.52970 | -89.74456 | 36069 ft | 410 kts | 259° |
| 2026-05-04 10:45 | 32.51243 | -89.80903 | 36068 ft | 410 kts | 259° |
| 2026-05-04 10:46 | 32.49512 | -89.87349 | 36076 ft | 410 kts | 259° |
| 2026-05-04 10:46 | 32.47779 | -89.93790 | 36073 ft | 411 kts | 259° |
| 2026-05-04 10:47 | 32.46041 | -90.00237 | 36085 ft | 411 kts | 259° |
| 2026-05-04 10:47 | 32.44306 | -90.06645 | 36096 ft | 411 kts | 258° |
| 2026-05-04 10:49 | 32.33375 | -90.31029 | 36081 ft | 420 kts | 248° |
| 2026-05-04 10:50 | 32.30520 | -90.37013 | 36099 ft | 421 kts | 248° |
| 2026-05-04 10:52 | 32.18936 | -90.61172 | 36110 ft | 425 kts | 248° |
| 2026-05-04 10:52 | 32.16016 | -90.67233 | 36111 ft | 425 kts | 248° |
| 2026-05-04 10:54 | 32.04283 | -90.91494 | 36100 ft | 426 kts | 248° |
| 2026-05-04 10:56 | 31.98198 | -91.04016 | 36128 ft | 426 kts | 247° |
| 2026-05-04 10:59 | 31.96387 | -91.07734 | 36131 ft | 427 kts | 248° |
| 2026-05-04 11:00 | 31.93429 | -91.13801 | 36128 ft | 427 kts | 247° |
| 2026-05-04 11:02 | 31.81551 | -91.38059 | 36122 ft | 428 kts | 247° |
| 2026-05-04 11:05 | 31.59159 | -91.83372 | 36125 ft | 429 kts | 247° |
| 2026-05-04 11:06 | 31.56153 | -91.89415 | 36125 ft | 429 kts | 247° |
| 2026-05-04 11:06 | 31.50492 | -92.00767 | 36071 ft | 429 kts | 247° |
| 2026-05-04 11:10 | 30.81548 | -93.49363 | 36099 ft | 429 kts | 250° |
| 2026-05-04 11:12 | 30.71778 | -93.70966 | 32098 ft | 406 kts | 249° |
| 2026-05-04 11:12 | 30.70478 | -93.73832 | 31517 ft | 394 kts | 249° |
| 2026-05-04 11:12 | 30.69219 | -93.76611 | 31010 ft | 394 kts | 249° |
| 2026-05-04 11:12 | 30.67931 | -93.79475 | 30469 ft | 407 kts | 249° |
| 2026-05-04 11:13 | 30.66599 | -93.82437 | 29827 ft | 418 kts | 248° |
| 2026-05-04 11:13 | 30.65242 | -93.85433 | 29199 ft | 417 kts | 248° |
| 2026-05-04 11:13 | 30.63895 | -93.88396 | 28600 ft | 413 kts | 248° |
| 2026-05-04 11:13 | 30.62556 | -93.91338 | 28027 ft | 410 kts | 248° |
| 2026-05-04 11:14 | 30.61243 | -93.94225 | 27464 ft | 407 kts | 248° |
| 2026-05-04 11:14 | 30.59926 | -93.97125 | 26911 ft | 404 kts | 248° |
| 2026-05-04 11:14 | 30.58617 | -94.00007 | 26380 ft | 402 kts | 248° |
| 2026-05-04 11:16 | 30.49969 | -94.18938 | 23864 ft | 371 kts | 247° |
| 2026-05-04 11:16 | 30.48757 | -94.21578 | 23343 ft | 370 kts | 247° |
| 2026-05-04 11:16 | 30.47548 | -94.24210 | 22856 ft | 368 kts | 246° |
| 2026-05-04 11:17 | 30.46347 | -94.26823 | 22381 ft | 367 kts | 246° |
| 2026-05-04 11:17 | 30.45149 | -94.29427 | 21935 ft | 365 kts | 246° |
| 2026-05-04 11:19 | 30.37512 | -94.46566 | 19016 ft | 355 kts | 249° |
| 2026-05-04 11:19 | 30.36472 | -94.49164 | 18570 ft | 355 kts | 249° |
| 2026-05-04 11:19 | 30.35430 | -94.51749 | 18086 ft | 355 kts | 249° |
| 2026-05-04 11:19 | 30.34393 | -94.54298 | 17602 ft | 344 kts | 248° |
| 2026-05-04 11:20 | 30.33388 | -94.56756 | 17173 ft | 332 kts | 248° |
| 2026-05-04 11:20 | 30.32414 | -94.59133 | 16766 ft | 329 kts | 249° |
| 2026-05-04 11:20 | 30.31435 | -94.61526 | 16334 ft | 328 kts | 249° |
| 2026-05-04 11:20 | 30.30458 | -94.63910 | 15942 ft | 328 kts | 249° |
| 2026-05-04 11:22 | 30.23716 | -94.80402 | 13896 ft | 307 kts | 249° |
| 2026-05-04 11:22 | 30.22811 | -94.82621 | 13558 ft | 304 kts | 249° |
| 2026-05-04 11:23 | 30.21923 | -94.84793 | 13198 ft | 294 kts | 249° |
| 2026-05-04 11:23 | 30.21059 | -94.86902 | 12837 ft | 285 kts | 249° |
| 2026-05-04 11:24 | 30.16264 | -94.98635 | 10913 ft | 275 kts | 248° |
| 2026-05-04 11:25 | 30.15452 | -95.00615 | 10568 ft | 270 kts | 248° |
| 2026-05-04 11:25 | 30.14658 | -95.02545 | 10290 ft | 258 kts | 248° |
| 2026-05-04 11:25 | 30.13908 | -95.04364 | 10191 ft | 245 kts | 248° |
| 2026-05-04 11:26 | 30.12366 | -95.07923 | 9674 ft | 257 kts | 237° |
| 2026-05-04 11:27 | 30.03790 | -95.18692 | 7695 ft | 255 kts | 230° |
| 2026-05-04 11:28 | 30.02587 | -95.20227 | 7516 ft | 260 kts | 230° |
| 2026-05-04 11:28 | 30.01370 | -95.21781 | 7292 ft | 262 kts | 230° |
| 2026-05-04 11:28 | 30.00146 | -95.23340 | 7089 ft | 262 kts | 230° |
| 2026-05-04 11:28 | 29.98920 | -95.24906 | 6889 ft | 263 kts | 230° |
| 2026-05-04 11:29 | 29.97691 | -95.26472 | 6668 ft | 263 kts | 229° |
| 2026-05-04 11:29 | 29.96460 | -95.28041 | 6440 ft | 263 kts | 229° |
| 2026-05-04 11:29 | 29.95231 | -95.29604 | 6230 ft | 261 kts | 229° |
| 2026-05-04 11:29 | 29.94025 | -95.31134 | 6155 ft | 253 kts | 229° |
| 2026-05-04 11:31 | 29.89312 | -95.42348 | 6156 ft | 229 kts | 268° |
| 2026-05-04 11:33 | 29.88901 | -95.54945 | 4841 ft | 220 kts | 268° |
| 2026-05-04 11:33 | 29.89238 | -95.56670 | 4582 ft | 228 kts | 298° |
| 2026-05-04 11:33 | 29.90365 | -95.57914 | 4413 ft | 226 kts | 333° |
| 2026-05-04 11:34 | 29.91889 | -95.58248 | 4230 ft | 224 kts | 4° |
| 2026-05-04 11:34 | 29.93404 | -95.57907 | 4072 ft | 227 kts | 17° |
| 2026-05-04 11:34 | 29.94934 | -95.57376 | 3810 ft | 232 kts | 18° |
| 2026-05-04 11:34 | 29.96475 | -95.56838 | 3564 ft | 230 kts | 19° |
| 2026-05-04 11:35 | 29.97925 | -95.56142 | 3282 ft | 222 kts | 39° |
| 2026-05-04 11:35 | 29.98789 | -95.54805 | 3130 ft | 203 kts | 79° |
| 2026-05-04 11:35 | 29.99042 | -95.53197 | 3093 ft | 207 kts | 87° |
| 2026-05-04 11:35 | 29.99226 | -95.51561 | 2795 ft | 204 kts | 88° |
| 2026-05-04 11:36 | 29.99337 | -95.49984 | 2538 ft | 191 kts | 94° |
| 2026-05-04 11:36 | 29.99347 | -95.48509 | 2302 ft | 177 kts | 96° |
| 2026-05-04 11:36 | 29.99346 | -95.47126 | 2084 ft | 172 kts | 96° |
| 2026-05-04 11:36 | 29.99343 | -95.45750 | 1861 ft | 171 kts | 96° |
| 2026-05-04 11:37 | 29.99344 | -95.44369 | 1641 ft | 173 kts | 96° |
| 2026-05-04 11:37 | 29.99345 | -95.42984 | 1387 ft | 169 kts | 95° |
| 2026-05-04 11:37 | 29.99346 | -95.41675 | 1163 ft | 158 kts | 95° |
| 2026-05-04 11:37 | 29.99343 | -95.40407 | 987 ft | 160 kts | 94° |
| 2026-05-04 11:38 | 29.99344 | -95.39102 | 754 ft | 163 kts | 92° |
| 2026-05-04 11:38 | 29.99344 | -95.37811 | 540 ft | 159 kts | 90° |
| 2026-05-04 11:38 | 29.99341 | -95.36534 | 324 ft | 158 kts | 91° |
| 2026-05-04 11:38 | 29.99343 | -95.35259 | 132 ft | 160 kts | 90° |
| 2026-05-04 11:39 | 29.99344 | -95.34154 | 110 ft | 81 kts | 90° |
| 2026-05-04 11:39 | 29.99341 | -95.33742 | 111 ft | 46 kts | 90° |
| 2026-05-04 11:40 | 29.99085 | -95.32652 | 109 ft | 18 kts | 90° |
| 2026-05-04 11:41 | 29.99085 | -95.32504 | 109 ft | 18 kts | 90° |
| 2026-05-04 11:41 | 29.99081 | -95.32356 | 110 ft | 18 kts | 91° |
| 2026-05-04 11:41 | 29.99039 | -95.32248 | 111 ft | 15 kts | 166° |
| 2026-05-04 11:41 | 29.98944 | -95.32242 | 107 ft | 12 kts | 181° |
| 2026-05-04 11:42 | 29.98911 | -95.32309 | 111 ft | 8 kts | 273° |
| 2026-05-04 11:42 | 29.98912 | -95.32325 | 112 ft | 0 kts | 274° |